Latest Weather Observations for Longreach

IDQ60801

Issued at 6:02 pm EST Wednesday 2 September 2015 (issued every 30 minutes, with the page automatically refreshed every 10 minutes)

About weather observations | Map of weather stations | Latest weather observations for QLD | Other Formats
Station Details ID: 036031 Name: LONGREACH AERO Lat: -23.44 Lon: 144.28 Height: 192.2 m
Data from the previous 72 hours. | See also: Recent months at Longreach
Date/Time
EST
Temp
°C
App
Temp
°C
Dew
Point
Rel
Hum
%
Delta-T
°C
Wind Press
QNH
hPa
Press
MSL
hPa
Rain
since 9 am
mm
Dir
 
Spd
km/h
Gust
km/h
Spd
kts
Gust
kts
02/06:00pm 31.8 24.2 -5.5 8 16.6 W 26 35 14 19 1010.3 1009.6 0.0
02/05:30pm 33.2 24.8 -6.0 8 17.5 W 30 37 16 20 1010.1 - 0.0
02/05:00pm 33.2 24.8 -6.0 8 17.5 WNW 30 41 16 22 1009.9 - 0.0
02/04:30pm 34.6 23.5 -6.5 7 18.4 WNW 44 59 24 32 1009.7 - 0.0
02/04:13pm 35.1 25.7 -5.9 7 18.6 NW 35 56 19 30 1009.5 - 0.0
02/04:00pm 34.8 25.1 -5.7 7 18.4 NW 37 48 20 26 1009.5 - 0.0
02/03:30pm 34.8 24.6 -7.1 6 18.6 NW 39 54 21 29 1009.7 - 0.0
02/03:00pm 35.0 24.9 -6.3 7 18.6 NW 39 50 21 27 1009.9 1009.2 0.0
02/02:30pm 33.4 24.0 -6.6 7 17.7 NW 35 46 19 25 1010.3 - 0.0
02/02:00pm 33.3 26.1 -5.0 8 17.4 NW 24 33 13 18 1010.4 - 0.0
02/01:33pm 33.9 24.2 -5.3 8 17.8 NW 37 44 20 24 1010.7 - 0.0
02/01:30pm 34.0 25.4 -3.8 8 17.6 NNW 32 46 17 25 1010.7 - 0.0
02/01:06pm 34.5 25.5 -2.7 9 17.7 N 35 56 19 30 1010.9 - 0.0
02/01:00pm 34.2 25.3 -2.1 10 17.4 NNW 35 52 19 28 1011.1 - 0.0
02/12:30pm 34.3 25.5 -1.3 10 17.3 NNW 35 48 19 26 1011.9 - 0.0
02/12:00pm 33.1 24.3 1.3 13 16.0 N 37 52 20 28 1012.4 1011.8 0.0
02/11:30am 33.8 25.7 3.3 14 15.9 N 35 48 19 26 1013.0 - 0.0
02/11:00am 31.4 24.6 9.1 25 12.6 N 35 50 19 27 1013.7 - 0.0
02/10:30am 29.8 24.3 12.6 34 10.2 N 33 43 18 23 1014.3 - 0.0
02/10:00am 28.1 22.6 12.4 37 9.2 N 33 39 18 21 1014.4 - 0.0
02/09:30am 26.3 20.9 12.8 43 7.9 N 33 41 18 22 1014.7 - 0.0
02/09:00am 24.9 19.3 12.0 44 7.4 N 33 39 18 21 1014.8 1014.2 0.0
02/08:30am 23.8 18.3 12.3 48 6.6 NNE 33 39 18 21 1014.6 - 0.0
02/08:00am 21.4 16.2 7.4 40 7.3 NNE 24 32 13 17 1014.4 - 0.0
02/07:30am 19.6 14.0 3.7 35 7.6 NNE 22 28 12 15 1014.3 - 0.0
02/07:00am 18.4 12.5 -0.7 27 8.3 NE 20 26 11 14 1014.1 - 0.0
02/06:30am 17.9 11.7 -4.8 21 9.0 NE 19 24 10 13 1014.1 - 0.0
02/06:00am 17.6 11.2 -7.0 18 9.3 NE 19 24 10 13 1013.9 1013.3 0.0
02/05:30am 17.2 11.9 -7.5 18 9.2 NE 13 15 7 8 1013.6 - 0.0
02/05:00am 16.8 10.7 -7.5 18 9.0 NE 17 19 9 10 1013.4 - 0.0
02/04:30am 16.6 10.0 -8.6 17 9.1 NNE 19 22 10 12 1013.0 - 0.0
02/04:00am 15.5 11.1 -5.5 23 8.0 N 9 11 5 6 1013.4 - 0.0
02/03:30am 15.7 11.1 -8.1 18 8.6 ENE 9 13 5 7 1013.6 - 0.0
02/03:00am 15.3 11.2 -7.0 21 8.2 E 7 9 4 5 1014.0 1013.4 0.0
02/02:30am 15.5 13.1 -3.3 27 7.5 CALM 0 0 0 0 1014.2 - 0.0
02/02:00am 15.6 12.0 -2.2 29 7.3 NE 7 7 4 4 1014.2 - 0.0
02/01:30am 15.0 10.7 -5.2 24 7.7 NNE 9 9 5 5 1014.2 - 0.0
02/01:00am 15.4 11.7 -4.8 24 7.8 NNE 6 7 3 4 1014.4 - 0.0
02/12:30am 15.0 11.0 -5.2 24 7.7 NNE 7 9 4 5 1014.5 - 0.0
02/12:00am 17.9 13.1 -6.3 18 9.3 E 11 15 6 8 1014.3 1013.7 0.0
 
Date/Time
EST
Temp
°C
App
Temp
°C
Dew
Point
Rel
Hum
%
Delta-T
°C
Wind Press
QNH
hPa
Press
MSL
hPa
Rain
since 9 am
mm
Dir
 
Spd
km/h
Gust
km/h
Spd
kts
Gust
kts
01/11:30pm 17.9 12.6 -6.8 18 9.4 ESE 13 13 7 7 1014.2 - 0.0
01/11:00pm 16.9 13.4 -2.5 26 8.0 E 6 7 3 4 1014.3 - 0.0
01/10:30pm 16.7 12.6 -3.4 25 8.1 NE 9 11 5 6 1014.3 - 0.0
01/10:00pm 19.7 15.1 -4.3 19 9.8 ESE 11 13 6 7 1014.3 - 0.0
01/09:30pm 20.6 15.6 -4.5 18 10.3 ESE 13 15 7 8 1014.1 - 0.0
01/09:00pm 21.1 16.0 -4.8 17 10.6 ESE 13 15 7 8 1013.9 1013.3 0.0
01/08:30pm 20.5 16.6 -1.2 23 9.5 ESE 9 11 5 6 1013.8 - 0.0
01/08:00pm 21.9 17.9 -1.9 20 10.4 SE 9 11 5 6 1013.5 - 0.0
01/07:30pm 23.1 19.4 -0.1 21 10.6 SE 9 9 5 5 1013.2 - 0.0
01/07:00pm 24.3 20.9 -0.7 19 11.4 SE 7 7 4 4 1012.7 - 0.0
01/06:30pm 25.8 23.8 -0.1 18 12.1 CALM 0 0 0 0 1012.4 - 0.0
01/06:00pm 27.5 25.1 2.1 19 12.5 SSE 4 7 2 4 1012.2 1011.6 0.0
01/05:30pm 28.5 25.7 -0.4 15 13.7 W 4 9 2 5 1012.3 - 0.0
01/05:00pm 28.7 24.5 -4.2 11 14.6 NNW 9 15 5 8 1012.2 - 0.0
01/04:30pm 28.6 24.9 -2.5 13 14.2 SW 7 15 4 8 1012.2 - 0.0
01/04:00pm 29.1 24.4 -2.1 13 14.4 WNW 13 19 7 10 1012.3 - 0.0
01/03:30pm 29.2 24.6 -4.3 11 14.9 WSW 11 19 6 10 1012.4 - 0.0
01/03:00pm 28.8 24.7 -3.4 12 14.5 WNW 9 17 5 9 1012.6 1012.0 0.0
01/02:30pm 28.0 23.2 -2.7 13 13.9 NNW 13 20 7 11 1013.0 - 0.0
01/02:00pm 28.0 23.9 -2.7 13 13.9 NNW 9 20 5 11 1013.6 - 0.0
01/01:30pm 27.5 23.0 -3.1 13 13.7 N 11 19 6 10 1014.2 - 0.0
01/01:00pm 27.1 22.0 -4.8 12 13.8 NNW 13 22 7 12 1015.0 - 0.0
01/12:30pm 26.9 21.8 -5.5 11 13.8 NNW 13 20 7 11 1015.7 - 0.0
01/12:00pm 26.3 21.7 -4.0 13 13.2 ENE 11 22 6 12 1016.5 1015.9 0.0
01/11:30am 25.3 19.7 -6.5 11 13.1 N 15 22 8 12 1017.1 - 0.0
01/11:00am 25.1 19.5 -6.0 12 12.9 NE 15 20 8 11 1017.6 - 0.0
01/10:30am 23.9 18.0 -5.6 13 12.2 NNE 17 24 9 13 1018.0 - 0.0
01/10:00am 22.2 16.2 -6.7 14 11.5 NE 17 24 9 13 1018.3 - 0.0
01/09:30am 21.0 15.0 -6.2 15 10.8 NE 17 20 9 11 1018.4 - 0.0
01/09:00am 19.6 14.1 -5.7 17 10.0 ENE 15 19 8 10 1018.4 1017.8 0.0
01/08:30am 15.6 10.9 -4.9 24 7.9 E 11 13 6 7 1018.5 - 0.0
01/08:00am 13.0 8.7 -5.3 27 6.8 ESE 9 11 5 6 1018.1 - 0.0
01/07:30am 11.6 8.5 -5.9 29 6.3 ESE 2 7 1 4 1017.8 - 0.0
01/07:00am 9.5 5.6 -4.2 38 5.0 E 7 7 4 4 1017.4 - 0.0
01/06:30am 8.0 3.8 -3.5 44 4.2 NE 9 11 5 6 1017.0 - 0.0
01/06:00am 8.4 3.2 -5.7 36 4.9 NE 13 13 7 7 1016.6 1016.0 0.0
01/05:30am 8.4 3.5 -6.6 34 5.1 NE 11 13 6 7 1016.6 - 0.0
01/05:00am 9.7 6.9 -3.4 39 4.9 SE 2 7 1 4 1016.4 - 0.0
01/04:30am 10.0 6.7 -4.1 37 5.2 E 4 9 2 5 1016.3 - 0.0
01/04:00am 9.7 5.6 -3.4 39 4.9 NNE 9 9 5 5 1016.5 - 0.0
01/03:30am 12.7 6.6 -3.7 31 6.3 SE 19 22 10 12 1016.6 - 0.0
01/03:00am 13.4 8.0 -4.5 28 6.8 SE 15 17 8 9 1016.6 1016.0 0.0
01/02:30am 14.0 8.7 -3.3 30 6.8 SE 15 19 8 10 1016.8 - 0.0
01/02:00am 14.2 8.4 -4.2 27 7.1 S 17 22 9 12 1016.7 - 0.0
01/01:30am 14.0 8.5 -5.1 26 7.2 S 15 17 8 9 1016.8 - 0.0
01/01:00am 13.8 8.3 -5.0 27 7.1 SSE 15 15 8 8 1017.0 - 0.0
01/12:30am 13.5 9.4 -3.1 31 6.5 SSE 9 11 5 6 1017.2 - 0.0
01/12:00am 13.6 9.0 -3.7 30 6.7 S 11 13 6 7 1017.4 1017.1 0.0
 
Date/Time
EST
Temp
°C
App
Temp
°C
Dew
Point
Rel
Hum
%
Delta-T
°C
Wind Press
QNH
hPa
Press
MSL
hPa
Rain
since 9 am
mm
Dir
 
Spd
km/h
Gust
km/h
Spd
kts
Gust
kts
31/11:30pm 15.0 10.5 -3.5 27 7.3 SSE 11 13 6 7 1017.5 - 0.0
31/11:00pm 15.5 11.0 -3.3 27 7.5 SE 11 13 6 7 1017.5 - 0.0
31/10:30pm 14.9 10.3 -4.1 26 7.4 SE 11 13 6 7 1017.4 - 0.0
31/10:00pm 16.1 11.7 -2.5 28 7.6 SSE 11 13 6 7 1017.5 - 0.0
31/09:30pm 16.4 12.0 -2.8 26 7.8 SSE 11 11 6 6 1017.6 - 0.0
31/09:00pm 17.5 13.6 -1.8 27 8.1 SSE 9 11 5 6 1017.6 1017.3 0.0
31/08:30pm 17.7 13.8 -1.4 27 8.1 SSE 9 11 5 6 1017.3 - 0.0
31/08:00pm 18.6 14.2 -2.4 24 8.8 SSE 11 11 6 6 1017.1 - 0.0
31/07:30pm 19.8 15.5 -1.5 23 9.2 SSW 11 13 6 7 1016.7 - 0.0
31/07:00pm 21.2 16.7 -3.1 19 10.3 SSW 11 13 6 7 1016.3 - 0.0
31/06:30pm 22.4 17.9 -3.5 17 11.0 SSW 11 13 6 7 1015.9 - 0.0
31/06:00pm 23.5 18.8 -5.1 14 11.9 SSW 11 15 6 8 1015.7 1015.3 0.0
31/05:30pm 24.2 19.1 -5.2 14 12.3 S 13 17 7 9 1015.6 - 0.0
31/05:00pm 24.7 19.5 -6.0 12 12.7 SSW 13 20 7 11 1015.4 - 0.0
31/04:30pm 25.0 19.0 -6.8 11 13.0 SSW 17 22 9 12 1015.1 - 0.0
31/04:00pm 25.0 19.9 -5.1 13 12.7 SSW 13 26 7 14 1015.2 - 0.0
31/03:30pm 25.2 20.7 -3.5 15 12.5 W 11 19 6 10 1015.6 - 0.0
31/03:00pm 24.8 20.9 -4.6 14 12.5 SE 7 13 4 7 1015.9 1015.5 0.0
31/02:30pm 25.0 18.6 -5.1 13 12.7 W 20 26 11 14 1016.3 - 0.0
31/02:00pm 24.9 18.8 -4.3 14 12.5 WSW 19 26 10 14 1016.8 - 0.0
31/01:30pm 24.5 19.9 -3.9 15 12.2 SSW 11 26 6 14 1017.3 - 0.0
31/01:00pm 24.4 19.0 -4.2 14 12.2 WSW 15 19 8 10 1017.7 - 0.0
31/12:30pm 23.8 19.7 -2.9 17 11.6 SE 9 15 5 8 1018.0 - 0.0
31/12:00pm 23.8 20.0 -0.7 19 11.1 ESE 9 17 5 9 1018.7 1018.4 0.0
31/11:30am 22.4 18.0 -2.2 19 10.7 S 11 17 6 9 1019.3 - 0.0
31/11:00am 22.0 17.7 -1.8 20 10.4 SE 11 19 6 10 1019.7 - 0.0
31/10:30am 21.8 17.5 -1.4 21 10.2 ESE 11 17 6 9 1020.1 - 0.0
31/10:00am 21.1 15.8 -0.5 23 9.6 E 17 20 9 11 1020.2 - 0.0
31/09:30am 20.0 15.1 -0.4 25 9.0 ESE 15 19 8 10 1019.9 - 0.0
31/09:00am 17.3 12.0 -0.7 29 7.7 ESE 17 22 9 12 1019.8 1019.5 0.0
31/08:30am 15.7 10.8 -0.6 33 6.9 SE 15 19 8 10 1019.5 - 0.0
31/08:00am 12.8 8.6 -0.9 38 5.6 SE 11 13 6 7 1019.4 - 0.0
31/07:30am 11.6 8.1 -1.1 41 5.1 E 7 9 4 5 1019.2 - 0.0
31/07:00am 10.2 6.8 -0.8 46 4.4 N 7 9 4 5 1018.7 - 0.0
31/06:30am 9.9 4.5 -1.6 44 4.5 SE 17 22 9 12 1018.2 - 0.0
31/06:00am 10.4 4.4 -1.9 42 4.8 SE 20 24 11 13 1017.8 1017.5 0.0
31/05:30am 10.1 4.7 -1.7 43 4.6 SE 17 19 9 10 1017.6 - 0.0
31/05:00am 9.9 4.4 -2.4 42 4.7 SE 17 19 9 10 1017.5 - 0.0
31/04:30am 10.4 5.3 -1.9 42 4.8 SE 15 19 8 10 1017.7 - 0.0
31/04:00am 9.4 5.6 -1.0 48 4.1 S 9 9 5 5 1018.0 - 0.0
31/03:30am 10.4 7.1 0.1 49 4.2 SSW 7 9 4 5 1018.4 - 0.0
31/03:00am 10.8 7.7 0.1 47 4.4 SSW 6 9 3 5 1018.4 1018.1 0.0
31/02:30am 11.5 7.7 -0.9 42 5.0 SSW 9 11 5 6 1018.4 - 0.0
31/02:00am 12.8 8.2 -1.3 37 5.7 SSW 13 13 7 7 1018.6 - 0.0
31/01:30am 13.4 8.8 -1.3 36 6.0 S 13 15 7 8 1018.7 - 0.0
31/01:00am 13.6 8.9 -1.7 34 6.2 S 13 15 7 8 1018.7 - 0.0
31/12:30am 14.5 9.1 -1.6 33 6.6 S 17 19 9 10 1018.8 - 0.0
31/12:00am 15.5 10.0 -2.1 30 7.2 S 17 20 9 11 1018.7 1018.4 0.0
 
Date/Time
EST
Temp
°C
App
Temp
°C
Dew
Point
Rel
Hum
%
Delta-T
°C
Wind Press
QNH
hPa
Press
MSL
hPa
Rain
since 9 am
mm
Dir
 
Spd
km/h
Gust
km/h
Spd
kts
Gust
kts
30/11:30pm 15.5 10.8 -2.1 30 7.2 S 13 17 7 9 1018.8 - 0.0
30/11:00pm 15.6 10.5 -1.9 30 7.2 S 15 15 8 8 1019.1 - 0.0
30/10:30pm 15.4 10.7 -1.9 30 7.1 S 13 15 7 8 1019.3 - 0.0
30/10:00pm 16.2 11.5 -1.6 29 7.4 S 13 15 7 8 1019.3 - 0.0
30/09:30pm 16.8 12.2 -1.2 29 7.6 S 13 13 7 7 1019.1 - 0.0
30/09:00pm 17.3 13.1 -0.6 29 7.7 S 11 13 6 7 1019.0 1018.7 0.0
30/08:30pm 18.4 14.9 1.3 31 7.7 S 9 9 5 5 1019.0 - 0.0
30/08:00pm 18.9 14.8 -0.2 27 8.4 SSE 11 11 6 6 1018.8 - 0.0
30/07:30pm 19.3 15.7 0.5 28 8.4 S 9 13 5 7 1018.4 - 0.0
30/07:00pm 20.1 16.5 0.6 27 8.8 SSE 9 11 5 6 1017.8 - 0.0
30/06:30pm 21.8 17.3 -0.2 23 9.9 S 13 17 7 9 1017.7 - 0.0

Other Formats:

Comma delimited format used in spreadsheet applications
http://www.bom.gov.au/fwo/IDQ60801/IDQ60801.94346.axf

JavaScript Object Notation format (JSON) in row-major order
http://www.bom.gov.au/fwo/IDQ60801/IDQ60801.94346.json